createdAt,value
2023-04-17T00:00:59.220Z,5899.00
2023-04-17T00:01:59.320Z,5984.00
2023-04-17T00:02:59.557Z,5936.00
2023-04-17T00:03:59.485Z,5941.00
2023-04-17T00:04:59.548Z,5826.00
2023-04-17T00:05:59.502Z,5793.00
2023-04-17T00:06:59.525Z,5831.00
2023-04-17T00:07:59.578Z,6030.00
2023-04-17T00:08:59.557Z,6067.00
2023-04-17T00:09:59.611Z,6191.00
2023-04-17T00:11:07.092Z,6276.00
2023-04-17T00:12:00.664Z,6280.00
2023-04-17T00:12:59.670Z,6311.00
2023-04-17T00:13:59.697Z,6385.00
2023-04-17T00:14:59.667Z,6524.00
2023-04-17T00:15:59.718Z,6618.00
2023-04-17T00:16:59.657Z,6499.00
2023-04-17T00:17:59.687Z,6456.00
2023-04-17T00:18:59.647Z,6373.00
2023-04-17T00:19:59.593Z,6377.00
2023-04-17T00:20:59.689Z,6399.00
2023-04-17T00:21:59.672Z,6465.00
2023-04-17T00:22:59.792Z,6562.00
2023-04-17T00:23:59.825Z,6562.00
2023-04-17T00:24:59.781Z,6530.00
2023-04-17T00:25:59.773Z,6547.00
2023-04-17T00:26:59.816Z,6567.00
2023-04-17T00:27:59.846Z,6787.00
2023-04-17T00:28:59.905Z,6929.00
2023-04-17T00:30:00.030Z,6972.00
2023-04-17T00:30:59.969Z,6791.00
2023-04-17T00:32:00.041Z,6741.00
2023-04-17T00:33:00.034Z,6606.00
2023-04-17T00:34:00.048Z,6577.00
2023-04-17T00:35:00.054Z,6493.00
2023-04-17T00:36:00.106Z,6492.00
2023-04-17T00:37:00.034Z,6396.00
2023-04-17T00:38:00.112Z,6214.00
2023-04-17T00:39:00.100Z,6217.00
2023-04-17T00:40:00.178Z,6150.00
2023-04-17T00:41:00.163Z,6165.00
2023-04-17T00:42:00.162Z,6140.00
2023-04-17T00:43:00.183Z,6141.00
2023-04-17T00:44:00.195Z,6054.00
2023-04-17T00:45:00.287Z,6032.00
2023-04-17T00:46:00.389Z,6043.00
2023-04-17T00:47:00.294Z,6032.00
2023-04-17T00:48:00.499Z,6060.00
2023-04-17T00:49:00.454Z,6082.00
2023-04-17T00:50:00.412Z,6134.00
2023-04-17T00:51:00.491Z,6092.00
2023-04-17T00:52:00.553Z,6095.00
2023-04-17T00:53:00.587Z,6146.00
2023-04-17T00:54:00.655Z,6143.00
2023-04-17T00:55:00.838Z,6168.00
2023-04-17T00:56:00.836Z,6170.00
2023-04-17T00:57:00.890Z,6250.00
2023-04-17T00:58:01.024Z,6269.00
2023-04-17T00:59:01.099Z,6266.00
2023-04-17T01:00:01.235Z,6270.00
2023-04-17T01:01:01.337Z,6249.00
2023-04-17T01:02:01.510Z,6254.00
2023-04-17T01:03:01.637Z,6258.00
2023-04-17T01:04:01.737Z,6307.00
2023-04-17T01:05:01.760Z,6333.00
2023-04-17T01:06:01.855Z,6462.00
2023-04-17T01:07:01.933Z,6480.00
2023-04-17T01:08:01.929Z,6493.00
2023-04-17T01:09:01.879Z,6580.00
2023-04-17T01:10:01.866Z,6700.00
2023-04-17T01:11:01.897Z,6711.00
2023-04-17T01:12:02.022Z,6660.00
2023-04-17T01:13:02.065Z,6634.00
2023-04-17T01:14:02.082Z,6641.00
2023-04-17T01:15:02.026Z,6560.00
2023-04-17T01:16:02.114Z,6489.00
2023-04-17T01:17:02.208Z,6429.00
2023-04-17T01:18:02.287Z,6350.00
2023-04-17T01:19:02.235Z,6348.00
2023-04-17T01:20:02.213Z,6351.00
2023-04-17T01:21:02.314Z,6463.00
2023-04-17T01:22:02.324Z,6450.00
2023-04-17T01:23:02.394Z,6390.00
2023-04-17T01:24:02.384Z,6452.00
2023-04-17T01:25:02.390Z,6434.00
2023-04-17T01:26:02.364Z,6341.00
2023-04-17T01:27:02.459Z,6279.00
2023-04-17T01:28:02.589Z,6196.00
2023-04-17T01:29:02.537Z,6221.00
2023-04-17T01:30:02.564Z,6175.00
2023-04-17T01:31:02.563Z,6202.00
2023-04-17T01:32:02.569Z,6218.00
2023-04-17T01:33:02.664Z,6263.00
2023-04-17T01:34:02.568Z,6310.00
2023-04-17T01:35:02.531Z,6301.00
2023-04-17T01:36:02.568Z,6313.00
2023-04-17T01:37:02.640Z,6318.00
2023-04-17T01:38:02.575Z,6381.00
2023-04-17T01:39:02.639Z,6436.00
2023-04-17T01:40:02.626Z,6528.00
2023-04-17T01:41:02.670Z,6644.00
2023-04-17T01:42:02.761Z,6744.00
2023-04-17T01:43:02.825Z,6790.00
2023-04-17T01:44:02.829Z,6764.00
2023-04-17T01:45:02.934Z,6555.00
2023-04-17T01:46:03.003Z,6483.00
2023-04-17T01:47:03.027Z,6420.00
2023-04-17T01:48:03.159Z,6428.00
2023-04-17T01:49:03.131Z,6545.00
2023-04-17T01:50:03.176Z,6556.00
2023-04-17T01:51:03.179Z,6587.00
2023-04-17T01:52:03.309Z,6607.00
2023-04-17T01:53:03.377Z,6618.00
2023-04-17T01:54:03.389Z,6665.00
2023-04-17T01:55:03.478Z,6770.00
2023-04-17T01:56:03.495Z,6883.00
2023-04-17T01:57:03.574Z,6965.00
2023-04-17T01:58:03.601Z,6899.00
2023-04-17T01:59:03.646Z,6893.00
2023-04-17T02:00:03.726Z,6849.00
2023-04-17T02:01:03.762Z,6841.00
2023-04-17T02:02:03.911Z,6806.00
2023-04-17T02:03:04.031Z,6711.00
2023-04-17T02:04:04.008Z,6648.00
2023-04-17T02:05:04.006Z,6507.00
2023-04-17T02:06:04.055Z,6461.00
2023-04-17T02:07:04.095Z,6404.00
2023-04-17T02:08:04.100Z,6240.00
2023-04-17T02:09:04.129Z,6171.00
2023-04-17T02:10:04.154Z,6208.00
2023-04-17T02:11:04.129Z,6195.00
2023-04-17T02:12:04.204Z,6218.00
2023-04-17T02:13:04.251Z,6199.00
2023-04-17T02:14:04.167Z,6143.00
2023-04-17T02:15:04.172Z,6159.00
2023-04-17T02:16:04.303Z,6140.00
2023-04-17T02:17:04.287Z,6079.00
2023-04-17T02:18:04.446Z,5990.00
2023-04-17T02:19:04.455Z,6001.00
2023-04-17T02:20:04.585Z,5963.00
2023-04-17T02:21:04.685Z,5919.00
2023-04-17T02:22:04.841Z,5921.00
2023-04-17T02:23:04.877Z,5976.00
2023-04-17T02:24:04.957Z,6053.00
2023-04-17T02:25:04.914Z,6059.00
2023-04-17T02:26:04.933Z,6124.00
2023-04-17T02:27:04.939Z,6162.00
2023-04-17T02:28:04.942Z,6112.00
2023-04-17T02:29:05.074Z,6061.00
2023-04-17T02:30:05.086Z,6081.00
2023-04-17T02:31:05.198Z,6102.00
2023-04-17T02:32:05.212Z,6015.00
2023-04-17T02:33:05.376Z,5952.00
2023-04-17T02:34:05.320Z,5933.00
2023-04-17T02:35:05.392Z,5919.00
2023-04-17T02:36:05.447Z,5828.00
2023-04-17T02:37:05.500Z,5843.00
2023-04-17T02:38:05.627Z,5864.00
2023-04-17T02:39:05.636Z,5887.00
2023-04-17T02:40:05.685Z,5946.00
2023-04-17T02:41:05.733Z,6017.00
2023-04-17T02:42:05.823Z,5986.00
2023-04-17T02:43:05.909Z,6097.00
2023-04-17T02:44:05.939Z,6164.00
2023-04-17T02:45:05.988Z,6180.00
2023-04-17T02:46:06.064Z,6265.00
2023-04-17T02:47:06.103Z,6102.00
2023-04-17T02:48:06.348Z,6027.00
2023-04-17T02:49:06.207Z,6013.00
2023-04-17T02:50:06.285Z,6024.00
2023-04-17T02:51:06.318Z,6118.00
2023-04-17T02:52:06.368Z,6163.00
2023-04-17T02:53:06.474Z,6212.00
2023-04-17T02:54:06.462Z,6228.00
2023-04-17T02:55:06.542Z,6268.00
2023-04-17T02:56:06.556Z,6299.00
2023-04-17T02:57:06.565Z,6211.00
2023-04-17T02:58:06.672Z,6137.00
2023-04-17T02:59:06.678Z,6130.00
2023-04-17T03:00:06.697Z,6212.00
2023-04-17T03:01:06.871Z,6200.00
2023-04-17T03:02:06.863Z,6371.00
2023-04-17T03:03:06.990Z,6403.00
2023-04-17T03:04:06.977Z,6459.00
2023-04-17T03:05:06.916Z,6518.00
2023-04-17T03:06:07.013Z,6584.00
2023-04-17T03:07:07.046Z,6590.00
2023-04-17T03:08:07.169Z,6470.00
2023-04-17T03:09:07.261Z,6358.00
2023-04-17T03:10:07.414Z,6280.00
2023-04-17T03:11:07.473Z,6110.00
2023-04-17T03:12:07.571Z,6003.00
2023-04-17T03:13:07.660Z,5999.00
2023-04-17T03:14:07.721Z,6049.00
2023-04-17T03:15:08.921Z,6090.00
2023-04-17T03:16:07.857Z,6075.00
2023-04-17T03:17:07.897Z,6105.00
2023-04-17T03:18:08.098Z,6042.00
2023-04-17T03:19:08.118Z,6033.00
2023-04-17T03:20:08.173Z,6028.00
2023-04-17T03:21:08.263Z,6013.00
2023-04-17T03:22:08.347Z,6004.00
2023-04-17T03:23:08.394Z,5990.00
2023-04-17T03:24:08.473Z,6012.00
2023-04-17T03:25:08.481Z,6016.00
2023-04-17T03:26:08.526Z,5925.00
2023-04-17T03:27:08.519Z,5922.00
2023-04-17T03:28:08.499Z,5907.00
2023-04-17T03:29:08.581Z,5784.00
2023-04-17T03:30:08.648Z,5535.00
2023-04-17T03:31:08.580Z,5434.00
2023-04-17T03:32:08.645Z,5436.00
2023-04-17T03:33:08.655Z,5411.00
2023-04-17T03:34:08.657Z,5411.00
2023-04-17T03:35:08.720Z,5494.00
2023-04-17T03:36:08.775Z,5676.00
2023-04-17T03:37:08.781Z,5658.00
2023-04-17T03:38:08.795Z,5639.00
2023-04-17T03:39:08.787Z,5658.00
2023-04-17T03:40:08.773Z,5679.00
2023-04-17T03:41:08.790Z,5751.00
2023-04-17T03:42:08.875Z,5798.00
2023-04-17T03:43:08.784Z,5849.00
2023-04-17T03:44:08.788Z,5887.00
2023-04-17T03:45:08.774Z,5952.00
2023-04-17T03:46:08.876Z,6023.00
2023-04-17T03:47:08.874Z,6050.00
2023-04-17T03:48:08.933Z,6095.00
2023-04-17T03:49:08.849Z,6102.00
2023-04-17T03:50:08.858Z,6109.00
2023-04-17T03:51:08.918Z,6151.00
2023-04-17T03:52:08.888Z,6175.00
2023-04-17T03:53:08.895Z,6148.00
2023-04-17T03:54:08.929Z,6135.00
2023-04-17T03:55:08.918Z,6148.00
2023-04-17T03:56:08.903Z,6250.00
2023-04-17T03:57:08.987Z,6322.00
2023-04-17T03:58:08.941Z,6417.00
2023-04-17T03:59:08.978Z,6426.00
2023-04-17T04:00:08.936Z,6352.00
2023-04-17T04:01:08.928Z,6382.00
2023-04-17T04:02:09.061Z,6382.00
2023-04-17T04:03:09.139Z,6322.00
2023-04-17T04:04:09.020Z,6283.00
2023-04-17T04:05:09.066Z,6270.00
2023-04-17T04:06:08.948Z,6271.00
2023-04-17T04:07:08.976Z,6130.00
2023-04-17T04:08:09.004Z,5957.00
2023-04-17T04:09:09.034Z,5881.00
2023-04-17T04:10:09.009Z,5900.00
2023-04-17T04:11:08.994Z,5931.00
2023-04-17T04:12:09.026Z,5983.00
2023-04-17T04:13:09.032Z,6024.00
2023-04-17T04:14:08.990Z,6151.00
2023-04-17T04:15:09.009Z,6199.00
2023-04-17T04:16:09.084Z,6225.00
2023-04-17T04:17:09.089Z,6188.00
2023-04-17T04:18:09.139Z,6186.00
2023-04-17T04:19:09.193Z,6343.00
2023-04-17T04:20:09.103Z,6584.00
2023-04-17T04:21:09.147Z,6765.00
2023-04-17T04:22:09.142Z,6775.00
2023-04-17T04:23:09.176Z,6715.00
2023-04-17T04:24:09.140Z,6627.00
2023-04-17T04:25:09.169Z,6591.00
2023-04-17T04:26:09.248Z,6578.00
2023-04-17T04:27:09.272Z,6566.00
2023-04-17T04:28:09.296Z,6572.00
2023-04-17T04:29:10.067Z,6548.00
2023-04-17T04:30:09.305Z,6461.00
2023-04-17T04:31:09.300Z,6350.00
2023-04-17T04:32:09.325Z,6214.00
2023-04-17T04:33:09.377Z,6072.00
2023-04-17T04:34:09.329Z,6064.00
2023-04-17T04:35:09.612Z,6068.00
2023-04-17T04:36:09.460Z,6105.00
2023-04-17T04:37:09.505Z,6177.00
2023-04-17T04:38:10.600Z,6278.00
2023-04-17T04:39:09.920Z,6380.00
2023-04-17T04:40:09.520Z,6332.00
2023-04-17T04:41:09.484Z,6253.00
2023-04-17T04:42:09.534Z,6210.00
2023-04-17T04:43:09.560Z,6205.00
2023-04-17T04:44:09.549Z,6172.00
2023-04-17T04:45:09.526Z,6194.00
2023-04-17T04:46:09.589Z,6392.00
2023-04-17T04:47:09.649Z,6626.00
2023-04-17T04:48:09.640Z,6684.00
2023-04-17T04:49:09.797Z,6605.00
2023-04-17T04:50:09.624Z,6526.00
2023-04-17T04:51:09.688Z,6495.00
2023-04-17T04:52:09.632Z,6444.00
2023-04-17T04:53:09.608Z,6424.00
2023-04-17T04:54:09.634Z,6477.00
2023-04-17T04:55:09.664Z,6504.00
2023-04-17T04:56:09.687Z,6467.00
2023-04-17T04:57:09.686Z,6416.00
2023-04-17T04:58:09.905Z,6380.00
2023-04-17T04:59:09.953Z,6438.00
2023-04-17T05:00:09.776Z,6466.00
2023-04-17T05:02:29.903Z,500.00
2023-04-17T05:03:29.615Z,500.00
2023-04-17T05:04:29.490Z,500.00
2023-04-17T05:05:29.439Z,500.00
2023-04-17T05:06:29.414Z,500.00
2023-04-17T05:07:29.430Z,507.00
2023-04-17T05:08:29.409Z,509.00
2023-04-17T05:09:29.423Z,501.00
2023-04-17T05:10:29.515Z,504.00
2023-04-17T05:11:29.412Z,498.00
2023-04-17T05:12:29.419Z,500.00
2023-04-17T05:13:29.453Z,498.00
2023-04-17T05:14:30.083Z,498.00
2023-04-17T05:15:29.410Z,522.00
2023-04-17T05:16:29.410Z,511.00
2023-04-17T05:17:29.391Z,521.00
2023-04-17T05:18:29.450Z,529.00
2023-04-17T05:19:29.369Z,541.00
2023-04-17T05:20:29.371Z,547.00
2023-04-17T05:21:31.099Z,543.00
2023-04-17T05:22:29.346Z,545.00
2023-04-17T05:23:29.416Z,550.00
2023-04-17T05:24:29.339Z,566.00
2023-04-17T05:25:29.766Z,581.00
2023-04-17T05:26:29.367Z,575.00
2023-04-17T05:27:29.754Z,567.00
2023-04-17T05:28:29.777Z,576.00
2023-04-17T05:29:29.386Z,566.00
2023-04-17T05:30:29.932Z,567.00
2023-04-17T05:31:29.580Z,587.00
2023-04-17T05:32:29.603Z,599.00
2023-04-17T05:33:29.628Z,586.00
2023-04-17T05:34:30.025Z,551.00
2023-04-17T05:35:29.651Z,533.00
2023-04-17T05:36:30.832Z,529.00
2023-04-17T05:37:30.139Z,532.00
2023-04-17T05:38:30.953Z,537.00
2023-04-17T05:39:30.211Z,504.00
2023-04-17T05:40:31.236Z,500.00
2023-04-17T05:41:30.095Z,500.00
2023-04-17T05:42:30.447Z,510.00
2023-04-17T05:43:30.068Z,500.00
2023-04-17T05:44:30.176Z,500.00
2023-04-17T05:46:57.552Z,500.00
2023-04-17T05:47:49.926Z,500.00
2023-04-17T05:48:50.354Z,500.00
2023-04-17T05:49:49.982Z,500.00
2023-04-17T05:50:49.845Z,500.00
2023-04-17T05:51:49.843Z,500.00
2023-04-17T05:52:49.855Z,521.00
2023-04-17T05:53:49.889Z,531.00
2023-04-17T05:54:49.828Z,548.00
2023-04-17T05:55:49.881Z,491.00
2023-04-17T05:56:49.843Z,497.00
2023-04-17T05:57:49.893Z,494.00
2023-04-17T05:58:50.333Z,505.00
2023-04-17T05:59:49.829Z,499.00
2023-04-17T06:00:49.829Z,500.00
2023-04-17T06:01:49.904Z,488.00
2023-04-17T06:02:49.957Z,477.00
2023-04-17T06:03:50.073Z,495.00
2023-04-17T06:04:50.056Z,502.00
2023-04-17T06:05:49.916Z,505.00
2023-04-17T06:06:49.881Z,502.00
2023-04-17T06:07:49.892Z,538.00
2023-04-17T06:08:50.373Z,561.00
2023-04-17T06:09:49.989Z,542.00
2023-04-17T06:10:50.060Z,538.00
2023-04-17T06:11:50.026Z,510.00
2023-04-17T06:12:49.994Z,499.00
2023-04-17T06:13:50.045Z,481.00
2023-04-17T06:14:50.034Z,482.00
2023-04-17T06:15:50.056Z,488.00
2023-04-17T06:16:50.136Z,501.00
2023-04-17T06:17:50.179Z,493.00
2023-04-17T06:18:50.061Z,499.00
2023-04-17T06:19:50.136Z,512.00
2023-04-17T06:20:50.094Z,532.00
2023-04-17T06:21:50.105Z,589.00
2023-04-17T06:22:50.104Z,626.00
2023-04-17T06:23:50.171Z,630.00
2023-04-17T06:24:50.111Z,618.00
2023-04-17T06:25:50.175Z,606.00
2023-04-17T06:26:50.133Z,645.00
2023-04-17T06:27:50.132Z,787.00
2023-04-17T06:28:50.224Z,1101.00
2023-04-17T06:29:50.873Z,1241.00
2023-04-17T06:30:50.342Z,925.00
2023-04-17T06:31:50.230Z,671.00
2023-04-17T06:32:50.231Z,631.00
2023-04-17T06:33:50.233Z,646.00
2023-04-17T06:34:59.063Z,651.00
2023-04-17T06:35:51.285Z,607.00
2023-04-17T06:36:50.252Z,585.00
2023-04-17T06:37:50.251Z,629.00
2023-04-17T06:38:50.201Z,664.00
2023-04-17T06:39:50.425Z,809.00
2023-04-17T06:40:52.476Z,637.00
2023-04-17T06:41:50.384Z,643.00
2023-04-17T06:42:50.373Z,732.00
2023-04-17T06:43:50.406Z,611.00
2023-04-17T06:44:50.451Z,587.00
2023-04-17T06:45:50.388Z,601.00
2023-04-17T06:46:50.648Z,635.00
2023-04-17T06:47:50.514Z,698.00
2023-04-17T06:48:50.457Z,634.00
2023-04-17T06:49:50.483Z,532.00
2023-04-17T06:50:50.484Z,469.00
2023-04-17T06:51:50.537Z,527.00
2023-04-17T06:52:50.632Z,592.00
2023-04-17T06:53:50.719Z,749.00
2023-04-17T06:54:50.836Z,876.00
2023-04-17T06:55:50.772Z,909.00
2023-04-17T06:56:50.840Z,1041.00
2023-04-17T06:57:50.843Z,1060.00
2023-04-17T06:58:50.849Z,883.00
2023-04-17T06:59:50.972Z,677.00
2023-04-17T07:00:50.935Z,572.00
2023-04-17T07:01:51.128Z,534.00
2023-04-17T07:02:51.760Z,461.00
2023-04-17T07:03:51.085Z,475.00
2023-04-17T07:04:51.075Z,518.00
2023-04-17T07:05:51.015Z,623.00
2023-04-17T07:06:51.000Z,518.00
2023-04-17T07:07:50.955Z,484.00
2023-04-17T07:08:51.566Z,500.00
2023-04-17T07:09:50.961Z,502.00
2023-04-17T07:10:51.888Z,526.00
2023-04-17T07:11:51.048Z,494.00
2023-04-17T07:12:51.152Z,448.00
2023-04-17T07:13:51.156Z,462.00
2023-04-17T07:14:51.204Z,521.00
2023-04-17T07:15:51.330Z,555.00
2023-04-17T07:16:51.321Z,678.00
2023-04-17T07:17:51.259Z,844.00
2023-04-17T07:18:51.180Z,775.00
2023-04-17T07:19:51.199Z,769.00
2023-04-17T07:20:51.206Z,687.00
2023-04-17T07:21:51.202Z,661.00
2023-04-17T07:22:51.249Z,755.00
2023-04-17T07:23:51.221Z,764.00
2023-04-17T07:24:51.313Z,623.00
2023-04-17T07:25:51.362Z,591.00
2023-04-17T07:26:51.295Z,649.00
2023-04-17T07:27:51.347Z,658.00
2023-04-17T07:28:51.366Z,675.00
2023-04-17T07:29:51.273Z,804.00
2023-04-17T07:30:51.327Z,633.00
2023-04-17T07:31:52.500Z,621.00
2023-04-17T07:32:51.487Z,548.00
2023-04-17T07:33:51.416Z,594.00
2023-04-17T07:34:51.856Z,637.00
2023-04-17T07:35:51.395Z,598.00
2023-04-17T07:36:51.480Z,491.00
2023-04-17T07:37:52.462Z,469.00
2023-04-17T07:38:51.518Z,465.00
2023-04-17T07:39:51.838Z,466.00
2023-04-17T07:40:51.648Z,400.00
2023-04-17T07:41:51.643Z,400.00
2023-04-17T07:42:51.954Z,400.00
2023-04-17T07:43:51.709Z,400.00
2023-04-17T07:44:51.871Z,400.00
2023-04-17T07:45:51.788Z,400.00
2023-04-17T07:46:51.856Z,442.00
2023-04-17T07:47:52.377Z,400.00
2023-04-17T07:48:51.873Z,400.00
2023-04-17T07:49:51.797Z,400.00
2023-04-17T07:50:51.850Z,519.00
2023-04-17T07:51:51.926Z,493.00
2023-04-17T07:52:51.955Z,481.00
2023-04-17T07:53:52.046Z,507.00
2023-04-17T07:54:52.032Z,625.00
2023-04-17T07:55:52.092Z,496.00
2023-04-17T07:56:52.501Z,493.00
2023-04-17T07:57:52.140Z,503.00
2023-04-17T07:58:52.175Z,520.00
2023-04-17T07:59:52.195Z,553.00
2023-04-17T08:00:52.231Z,624.00
2023-04-17T08:01:52.410Z,551.00
2023-04-17T08:02:52.575Z,587.00
2023-04-17T08:03:52.582Z,561.00
2023-04-17T08:04:52.705Z,604.00
2023-04-17T08:05:52.421Z,623.00
2023-04-17T08:06:52.450Z,630.00
2023-04-17T08:07:52.449Z,556.00
2023-04-17T08:08:52.546Z,553.00
2023-04-17T08:09:52.869Z,599.00
2023-04-17T08:10:52.489Z,601.00
2023-04-17T08:11:57.592Z,630.00
2023-04-17T08:12:53.494Z,631.00
2023-04-17T08:13:52.574Z,634.00
2023-04-17T08:14:52.432Z,663.00
2023-04-17T08:15:52.452Z,892.00
2023-04-17T08:16:52.497Z,1025.00
2023-04-17T08:17:52.532Z,1001.00
2023-04-17T08:18:52.423Z,1021.00
2023-04-17T08:19:52.429Z,785.00
2023-04-17T08:20:52.370Z,646.00
2023-04-17T08:21:52.438Z,597.00
2023-04-17T08:22:52.440Z,635.00
2023-04-17T08:23:52.389Z,688.00
2023-04-17T08:24:52.904Z,804.00
2023-04-17T08:25:52.380Z,876.00
2023-04-17T08:26:52.369Z,792.00
2023-04-17T08:27:52.913Z,657.00
2023-04-17T08:28:52.324Z,663.00
2023-04-17T08:29:52.429Z,777.00
2023-04-17T08:30:52.357Z,902.00
2023-04-17T08:32:00.301Z,1265.00
2023-04-17T08:32:53.418Z,1279.00
2023-04-17T08:33:56.966Z,1295.00
2023-04-17T08:34:54.165Z,1275.00
2023-04-17T08:35:52.961Z,1294.00
2023-04-17T08:36:52.543Z,1278.00
2023-04-17T08:37:52.590Z,1302.00
2023-04-17T08:38:52.667Z,1354.00
2023-04-17T08:39:52.782Z,1250.00
2023-04-17T08:40:52.883Z,993.00
2023-04-17T08:41:52.780Z,745.00
2023-04-17T08:42:52.786Z,677.00
2023-04-17T08:43:52.821Z,551.00
2023-04-17T08:44:52.803Z,527.00
2023-04-17T08:45:53.047Z,496.00
2023-04-17T08:46:53.063Z,531.00
2023-04-17T08:47:52.876Z,513.00
2023-04-17T08:48:52.936Z,609.00
2023-04-17T08:49:53.872Z,524.00
2023-04-17T08:50:53.375Z,451.00
2023-04-17T08:51:53.079Z,511.00
2023-04-17T08:52:53.167Z,430.00
2023-04-17T08:53:53.149Z,404.00
2023-04-17T08:54:53.161Z,484.00
2023-04-17T08:55:53.413Z,444.00
2023-04-17T08:56:53.186Z,400.00
2023-04-17T08:57:53.299Z,413.00
2023-04-17T08:58:53.244Z,492.00
2023-04-17T08:59:53.347Z,497.00
2023-04-17T09:00:53.353Z,562.00
2023-04-17T09:01:53.437Z,595.00
2023-04-17T09:02:53.635Z,861.00
2023-04-17T09:03:55.545Z,828.00
2023-04-17T09:04:53.812Z,902.00
2023-04-17T09:05:53.973Z,926.00
2023-04-17T09:06:57.447Z,949.00
2023-04-17T09:07:54.617Z,615.00
2023-04-17T09:08:53.574Z,530.00
2023-04-17T09:09:53.738Z,582.00
2023-04-17T09:10:53.697Z,634.00
2023-04-17T09:11:54.250Z,587.00
2023-04-17T09:12:53.543Z,594.00
2023-04-17T09:13:53.569Z,540.00
2023-04-17T09:14:53.654Z,523.00
2023-04-17T09:15:54.237Z,599.00
2023-04-17T09:16:53.546Z,660.00
2023-04-17T09:17:53.742Z,642.00
2023-04-17T09:18:53.549Z,671.00
2023-04-17T09:19:53.540Z,786.00
2023-04-17T09:20:54.029Z,657.00
2023-04-17T09:21:53.535Z,635.00
2023-04-17T09:22:53.513Z,587.00
2023-04-17T09:23:53.490Z,468.00
2023-04-17T09:24:55.715Z,509.00
2023-04-17T09:25:54.417Z,507.00
2023-04-17T09:26:53.500Z,512.00
2023-04-17T09:27:53.512Z,533.00
2023-04-17T09:28:53.503Z,638.00
2023-04-17T09:29:53.459Z,912.00
2023-04-17T09:30:53.491Z,775.00
2023-04-17T09:31:53.457Z,719.00
2023-04-17T09:32:53.509Z,700.00
2023-04-17T09:33:54.487Z,757.00
2023-04-17T09:34:53.449Z,685.00
2023-04-17T09:35:53.467Z,1003.00
2023-04-17T09:36:53.411Z,929.00
2023-04-17T09:37:53.469Z,700.00
2023-04-17T09:38:54.415Z,824.00
2023-04-17T09:39:53.420Z,939.00
2023-04-17T09:40:53.905Z,1165.00
2023-04-17T09:41:53.460Z,1249.00
2023-04-17T09:42:53.430Z,1123.00
2023-04-17T09:43:53.408Z,1174.00
2023-04-17T09:44:53.457Z,1199.00
2023-04-17T09:45:53.418Z,1216.00
2023-04-17T09:46:53.402Z,1052.00
2023-04-17T09:47:53.393Z,1262.00
2023-04-17T09:48:53.352Z,1369.00
2023-04-17T09:49:53.406Z,1577.00
2023-04-17T09:50:53.356Z,1556.00
2023-04-17T09:51:53.386Z,1079.00
2023-04-17T09:52:53.343Z,503.00
2023-04-17T09:53:53.382Z,485.00
2023-04-17T09:54:53.501Z,521.00
2023-04-17T09:55:53.299Z,490.00
2023-04-17T09:56:53.412Z,528.00
2023-04-17T09:57:53.331Z,484.00
2023-04-17T09:58:53.318Z,560.00
2023-04-17T09:59:53.308Z,533.00
2023-04-17T10:00:53.316Z,518.00
2023-04-17T10:01:53.345Z,623.00
2023-04-17T10:02:53.329Z,637.00
2023-04-17T10:03:53.447Z,762.00
2023-04-17T10:04:53.294Z,656.00
2023-04-17T10:05:53.457Z,565.00
2023-04-17T10:06:53.155Z,565.00
2023-04-17T10:07:53.300Z,604.00
2023-04-17T10:08:53.290Z,564.00
2023-04-17T10:09:53.223Z,526.00
2023-04-17T10:10:53.231Z,614.00
2023-04-17T10:11:53.303Z,623.00
2023-04-17T10:12:53.236Z,589.00
2023-04-17T10:13:53.561Z,962.00
2023-04-17T10:14:53.426Z,1101.00
2023-04-17T10:15:53.433Z,1102.00
2023-04-17T10:16:53.499Z,982.00
2023-04-17T10:17:53.650Z,1056.00
2023-04-17T10:18:53.571Z,1328.00
2023-04-17T10:19:53.621Z,1479.00
2023-04-17T10:20:54.212Z,1444.00
2023-04-17T10:21:53.765Z,1242.00
2023-04-17T10:22:53.723Z,857.00
2023-04-17T10:23:53.731Z,862.00
2023-04-17T10:24:53.872Z,938.00
2023-04-17T10:25:53.787Z,1129.00
2023-04-17T10:26:53.804Z,1358.00
2023-04-17T10:27:53.818Z,1493.00
2023-04-17T10:28:53.918Z,1813.00
2023-04-17T10:29:53.973Z,1665.00
2023-04-17T10:30:55.102Z,1277.00
2023-04-17T10:31:54.113Z,1343.00
2023-04-17T10:32:54.181Z,1292.00
2023-04-17T10:33:54.169Z,803.00
2023-04-17T10:34:54.169Z,755.00
2023-04-17T10:35:54.933Z,780.00
2023-04-17T10:36:54.276Z,903.00
2023-04-17T10:37:54.291Z,1049.00
2023-04-17T10:38:54.292Z,1275.00
2023-04-17T10:39:54.302Z,1173.00
2023-04-17T10:40:54.951Z,1151.00
2023-04-17T10:41:54.325Z,1162.00
2023-04-17T10:42:54.318Z,1308.00
2023-04-17T10:43:54.372Z,1446.00
2023-04-17T10:44:54.467Z,1396.00
2023-04-17T10:45:54.425Z,881.00
2023-04-17T10:46:54.478Z,853.00
2023-04-17T10:47:54.531Z,939.00
2023-04-17T10:48:54.600Z,782.00
2023-04-17T10:49:56.459Z,686.00
2023-04-17T10:50:54.888Z,889.00
2023-04-17T10:51:54.681Z,1111.00
2023-04-17T10:52:54.709Z,1234.00
2023-04-17T10:53:54.708Z,1339.00
2023-04-17T10:54:54.667Z,1073.00
2023-04-17T10:55:54.835Z,1013.00
2023-04-17T10:56:54.765Z,1234.00
2023-04-17T10:57:54.776Z,1218.00
2023-04-17T10:58:54.836Z,951.00
2023-04-17T10:59:54.862Z,708.00
2023-04-17T11:00:54.912Z,583.00
2023-04-17T11:01:54.996Z,605.00
2023-04-17T11:02:54.960Z,582.00
2023-04-17T11:03:54.838Z,652.00
2023-04-17T11:04:54.853Z,716.00
2023-04-17T11:05:54.942Z,879.00
2023-04-17T11:06:55.009Z,1133.00
2023-04-17T11:07:54.952Z,1245.00
2023-04-17T11:08:55.686Z,1219.00
2023-04-17T11:09:54.965Z,1080.00
2023-04-17T11:10:54.974Z,819.00
2023-04-17T11:11:54.995Z,710.00
2023-04-17T11:12:54.981Z,690.00
2023-04-17T11:13:54.983Z,830.00
2023-04-17T11:14:55.103Z,969.00
2023-04-17T11:15:55.086Z,1284.00
2023-04-17T11:16:55.498Z,1602.00
2023-04-17T11:17:55.245Z,1548.00
2023-04-17T11:18:55.241Z,1507.00
2023-04-17T11:19:55.319Z,1371.00
2023-04-17T11:20:55.252Z,1069.00
2023-04-17T11:21:55.434Z,1306.00
2023-04-17T11:22:55.397Z,1644.00
2023-04-17T11:23:55.461Z,1573.00
2023-04-17T11:24:55.515Z,1828.00
2023-04-17T11:25:55.652Z,1950.00
2023-04-17T11:26:55.885Z,1893.00
2023-04-17T11:27:55.691Z,1847.00
2023-04-17T11:28:55.668Z,1983.00
2023-04-17T11:29:55.777Z,2102.00
2023-04-17T11:30:55.793Z,2135.00
2023-04-17T11:31:56.020Z,2550.00
2023-04-17T11:32:55.977Z,2413.00
2023-04-17T11:33:55.927Z,2126.00
2023-04-17T11:34:55.851Z,2179.00
2023-04-17T11:35:55.853Z,2075.00
2023-04-17T11:36:56.892Z,1840.00
2023-04-17T11:37:55.933Z,1489.00
2023-04-17T11:38:56.002Z,1116.00
2023-04-17T11:39:55.997Z,1036.00
2023-04-17T11:40:56.155Z,1461.00
2023-04-17T11:41:56.438Z,1591.00
2023-04-17T11:42:56.169Z,1630.00
2023-04-17T11:43:56.116Z,1686.00
2023-04-17T11:44:56.201Z,1264.00
2023-04-17T11:45:56.280Z,727.00
2023-04-17T11:46:56.525Z,662.00
2023-04-17T11:47:56.259Z,585.00
2023-04-17T11:48:56.297Z,795.00
2023-04-17T11:49:56.339Z,1000.00
2023-04-17T11:50:56.336Z,799.00
2023-04-17T11:51:56.939Z,904.00
2023-04-17T11:52:56.399Z,722.00
2023-04-17T11:53:56.440Z,888.00
2023-04-17T11:54:56.531Z,968.00
2023-04-17T11:55:56.579Z,666.00
2023-04-17T11:56:56.621Z,792.00
2023-04-17T11:57:56.611Z,757.00
2023-04-17T11:58:56.682Z,920.00
2023-04-17T11:59:56.709Z,923.00
2023-04-17T12:00:56.715Z,1005.00
2023-04-17T12:01:56.736Z,930.00
2023-04-17T12:02:56.822Z,863.00
2023-04-17T12:03:56.995Z,911.00
2023-04-17T12:04:57.042Z,692.00
2023-04-17T12:05:56.925Z,624.00
2023-04-17T12:06:58.553Z,607.00
2023-04-17T12:07:56.795Z,598.00
2023-04-17T12:08:56.841Z,640.00
2023-04-17T12:09:56.808Z,562.00
2023-04-17T12:10:56.771Z,620.00
2023-04-17T12:11:56.786Z,688.00
2023-04-17T12:12:56.839Z,636.00
2023-04-17T12:13:56.770Z,670.00
2023-04-17T12:14:56.845Z,583.00
2023-04-17T12:15:56.821Z,445.00
2023-04-17T12:16:56.774Z,419.00
2023-04-17T12:17:56.882Z,494.00
2023-04-17T12:18:56.781Z,564.00
2023-04-17T12:19:56.749Z,583.00